createdAt,value
2019-03-04T00:01:44.831Z,68.97
2019-03-04T00:04:13.215Z,69.04
2019-03-04T00:06:41.611Z,69.05
2019-03-04T00:09:11.597Z,69.13
2019-03-04T00:11:40.674Z,69.24
2019-03-04T00:14:09.099Z,69.47
2019-03-04T00:16:37.484Z,69.49
2019-03-04T00:19:05.909Z,69.46
2019-03-04T00:21:34.326Z,69.55
2019-03-04T00:24:02.735Z,69.56
2019-03-04T00:26:31.129Z,69.61
2019-03-04T00:28:59.522Z,69.55
2019-03-04T00:31:27.981Z,69.65
2019-03-04T00:33:56.365Z,69.53
2019-03-04T00:36:24.762Z,69.62
2019-03-04T00:38:53.172Z,69.67
2019-03-04T00:41:21.641Z,69.66
2019-03-04T00:43:50.056Z,69.52
2019-03-04T00:46:19.973Z,69.48
2019-03-04T00:48:48.355Z,69.57
2019-03-04T00:51:16.730Z,69.57
2019-03-04T00:53:45.105Z,69.61
2019-03-04T00:56:13.517Z,69.77
2019-03-04T00:58:42.005Z,69.71
2019-03-04T01:01:10.471Z,69.54
2019-03-04T01:03:38.865Z,69.47
2019-03-04T01:06:07.342Z,69.46
2019-03-04T01:08:35.747Z,69.56
2019-03-04T01:11:05.911Z,69.46
2019-03-04T01:13:34.303Z,69.49
2019-03-04T01:16:02.698Z,69.59
2019-03-04T01:18:31.115Z,69.71
2019-03-04T01:20:59.515Z,69.64
2019-03-04T01:23:27.899Z,69.74
2019-03-04T01:25:56.291Z,69.74
2019-03-04T01:28:24.708Z,69.60
2019-03-04T01:30:53.126Z,69.47
2019-03-04T01:33:21.625Z,69.50
2019-03-04T01:35:50.018Z,69.46
2019-03-04T01:38:18.411Z,69.54
2019-03-04T01:40:46.824Z,69.42
2019-03-04T01:43:15.206Z,69.55
2019-03-04T01:45:43.775Z,69.53
2019-03-04T01:48:12.257Z,69.53
2019-03-04T01:50:40.672Z,69.44
2019-03-04T01:53:09.073Z,69.56
2019-03-04T01:55:37.485Z,69.53
2019-03-04T01:58:05.872Z,69.54
2019-03-04T02:00:34.468Z,69.51
2019-03-04T02:03:02.854Z,69.51
2019-03-04T02:05:31.239Z,69.54
2019-03-04T02:07:59.689Z,69.66
2019-03-04T02:10:28.083Z,69.67
2019-03-04T02:12:56.581Z,69.54
2019-03-04T02:15:24.966Z,69.55
2019-03-04T02:17:53.355Z,69.62
2019-03-04T02:20:21.760Z,69.71
2019-03-04T02:22:50.144Z,69.75
2019-03-04T02:25:42.260Z,69.96
2019-03-04T02:28:10.642Z,69.89
2019-03-04T02:30:39.118Z,69.79
2019-03-04T02:33:07.592Z,69.89
2019-03-04T02:35:36.143Z,70.14
2019-03-04T02:38:04.544Z,70.21
2019-03-04T02:40:32.923Z,70.34
2019-03-04T02:43:01.880Z,70.47
2019-03-04T02:45:30.284Z,70.29
2019-03-04T02:47:58.696Z,70.37
2019-03-04T02:50:27.105Z,70.41
2019-03-04T02:52:55.501Z,70.35
2019-03-04T02:55:23.947Z,70.38
2019-03-04T02:57:52.306Z,70.41
2019-03-04T03:00:20.752Z,70.23
2019-03-04T03:02:49.139Z,70.26
2019-03-04T03:05:17.532Z,70.31
2019-03-04T03:07:45.935Z,70.29
2019-03-04T03:10:15.145Z,70.34
2019-03-04T03:12:43.602Z,70.35
2019-03-04T03:15:13.824Z,70.36
2019-03-04T03:17:43.103Z,70.41
2019-03-04T03:20:12.919Z,70.48
2019-03-04T03:22:41.333Z,70.45
2019-03-04T03:25:11.081Z,70.36
2019-03-04T03:27:39.702Z,70.39
2019-03-04T03:30:19.980Z,70.40
2019-03-04T03:32:49.108Z,70.42
2019-03-04T03:35:17.497Z,70.44
2019-03-04T03:37:45.893Z,70.37
2019-03-04T03:40:16.035Z,70.32
2019-03-04T03:42:44.421Z,70.42
2019-03-04T03:45:13.142Z,70.46
2019-03-04T03:47:41.555Z,70.49
2019-03-04T03:50:12.982Z,70.58
2019-03-04T03:52:41.444Z,70.54
2019-03-04T03:55:13.733Z,70.52
2019-03-04T03:57:42.142Z,70.55
2019-03-04T04:00:13.588Z,70.71
2019-03-04T04:02:41.974Z,70.62
2019-03-04T04:05:10.368Z,70.64
2019-03-04T04:07:38.768Z,70.62
2019-03-04T04:10:10.259Z,70.60
2019-03-04T04:12:38.643Z,70.69
2019-03-04T04:15:10.174Z,70.72
2019-03-04T04:17:38.559Z,70.88
2019-03-04T04:20:08.884Z,70.85
2019-03-04T04:22:37.281Z,70.75
2019-03-04T04:25:07.656Z,70.86
2019-03-04T04:27:36.110Z,70.80
2019-03-04T04:30:14.639Z,70.87
2019-03-04T04:32:43.047Z,70.75
2019-03-04T04:35:11.410Z,70.85
2019-03-04T04:37:39.853Z,70.94
2019-03-04T04:40:14.651Z,70.90
2019-03-04T04:42:43.135Z,70.91
2019-03-04T04:45:11.773Z,70.89
2019-03-04T04:47:41.799Z,70.81
2019-03-04T04:50:13.408Z,70.82
2019-03-04T04:52:41.793Z,70.79
2019-03-04T04:55:10.316Z,70.74
2019-03-04T04:57:38.729Z,70.79
2019-03-04T05:00:15.534Z,70.79
2019-03-04T05:02:43.983Z,70.67
2019-03-04T05:05:12.513Z,70.64
2019-03-04T05:07:40.889Z,70.66
2019-03-04T05:10:12.323Z,70.54
2019-03-04T05:12:40.733Z,70.45
2019-03-04T05:15:11.381Z,70.43
2019-03-04T05:17:40.031Z,70.48
2019-03-04T05:20:11.594Z,70.24
2019-03-04T05:22:40.125Z,70.31
2019-03-04T05:25:08.943Z,70.26
2019-03-04T05:27:37.326Z,70.09
2019-03-04T05:30:08.780Z,70.18
2019-03-04T05:32:37.167Z,69.84
2019-03-04T05:35:06.200Z,69.79
2019-03-04T05:37:34.584Z,69.73
2019-03-04T05:40:03.434Z,69.61
2019-03-04T05:42:31.815Z,69.53
2019-03-04T05:45:00.339Z,69.44
2019-03-04T05:47:28.731Z,69.36
2019-03-04T05:49:57.131Z,69.35
2019-03-04T05:52:25.514Z,69.33
2019-03-04T05:54:53.911Z,69.29
2019-03-04T05:57:22.307Z,69.34
2019-03-04T05:59:50.705Z,69.35
2019-03-04T06:02:19.117Z,69.55
2019-03-04T06:04:47.475Z,69.42
2019-03-04T06:07:17.514Z,69.34
2019-03-04T06:09:45.916Z,69.35
2019-03-04T06:12:14.295Z,69.12
2019-03-04T06:14:42.676Z,69.25
2019-03-04T06:17:11.075Z,69.35
2019-03-04T06:19:39.467Z,69.38
2019-03-04T06:22:07.847Z,69.39
2019-03-04T06:24:36.232Z,69.23
2019-03-04T06:27:04.709Z,69.18
2019-03-04T06:29:33.103Z,68.98
2019-03-04T06:32:01.531Z,68.91
2019-03-04T06:34:29.943Z,68.88
2019-03-04T06:36:58.351Z,68.43
2019-03-04T06:39:26.745Z,68.62
2019-03-04T06:41:55.148Z,68.50
2019-03-04T06:44:23.537Z,68.29
2019-03-04T06:46:54.115Z,68.12
2019-03-04T06:49:24.124Z,68.03
2019-03-04T06:51:52.157Z,67.74
2019-03-04T06:54:29.319Z,67.39
2019-03-04T06:57:00.777Z,67.00
2019-03-04T06:59:43.998Z,66.80
2019-03-04T07:02:20.615Z,66.52
2019-03-04T07:05:07.202Z,66.41
2019-03-04T07:07:35.600Z,66.23
2019-03-04T07:10:06.060Z,66.33
2019-03-04T07:12:34.439Z,66.10
2019-03-04T07:15:02.859Z,66.32
2019-03-04T07:17:31.250Z,66.34
2019-03-04T07:20:11.464Z,66.60
2019-03-04T07:22:39.853Z,66.55
2019-03-04T07:25:09.779Z,66.44
2019-03-04T07:27:38.160Z,66.49
2019-03-04T07:30:15.375Z,66.56
2019-03-04T07:32:43.758Z,66.54
2019-03-04T07:35:12.379Z,66.67
2019-03-04T07:37:40.769Z,66.45
2019-03-04T07:40:19.461Z,66.12
2019-03-04T07:42:47.914Z,66.00
2019-03-04T07:45:16.298Z,65.81
2019-03-04T07:47:44.675Z,65.62
2019-03-04T07:50:13.255Z,64.92
2019-03-04T07:52:41.642Z,64.92
2019-03-04T07:55:10.211Z,64.52
2019-03-04T07:57:38.579Z,64.46
2019-03-04T08:00:10.362Z,64.13
2019-03-04T08:02:38.746Z,64.09
2019-03-04T08:05:10.037Z,63.85
2019-03-04T08:07:47.208Z,63.75
2019-03-04T08:10:49.932Z,63.92
2019-03-04T08:13:30.323Z,63.48
2019-03-04T08:15:58.867Z,63.47
2019-03-04T08:18:27.348Z,63.80
2019-03-04T08:20:55.733Z,63.67
2019-03-04T08:23:24.160Z,63.35
2019-03-04T08:25:52.518Z,63.73
2019-03-04T08:28:20.931Z,63.57
2019-03-04T08:30:49.342Z,62.84
2019-03-04T08:33:17.725Z,62.15
2019-03-04T08:35:46.105Z,62.32
2019-03-04T08:38:14.496Z,60.66
2019-03-04T08:40:42.876Z,60.47
2019-03-04T08:43:11.278Z,60.10
2019-03-04T08:45:39.679Z,59.38
2019-03-04T08:48:10.758Z,58.66
2019-03-04T08:50:39.117Z,58.38
2019-03-04T08:53:07.735Z,58.53
2019-03-04T08:55:36.113Z,58.56
2019-03-04T08:58:04.559Z,58.21
2019-03-04T09:00:33.007Z,57.36
2019-03-04T09:03:01.419Z,57.74
2019-03-04T09:05:29.801Z,58.08
2019-03-04T09:07:58.186Z,57.80
2019-03-04T09:10:28.506Z,57.83
2019-03-04T09:12:56.959Z,57.39
2019-03-04T09:15:25.480Z,57.22
2019-03-04T09:17:53.951Z,56.18
2019-03-04T09:20:22.873Z,56.16
2019-03-04T09:22:51.293Z,55.79
2019-03-04T09:25:43.658Z,55.46
2019-03-04T09:28:12.070Z,54.41
2019-03-04T09:30:40.446Z,53.29
2019-03-04T09:33:09.199Z,53.57
2019-03-04T09:35:37.560Z,53.52
2019-03-04T09:38:06.290Z,53.68
2019-03-04T09:40:35.859Z,53.65
2019-03-04T09:43:05.847Z,53.64
2019-03-04T09:45:38.806Z,53.51
2019-03-04T09:48:04.639Z,53.22
2019-03-04T09:50:33.070Z,53.36
2019-03-04T09:53:01.476Z,53.08
2019-03-04T09:55:29.857Z,52.50
2019-03-04T09:57:58.255Z,52.69
2019-03-04T10:01:00.218Z,52.65
2019-03-04T10:03:31.672Z,51.98
2019-03-04T10:06:15.333Z,51.77
2019-03-04T10:08:52.424Z,51.25
2019-03-04T10:11:29.602Z,51.22
2019-03-04T10:14:01.040Z,50.37
2019-03-04T10:16:52.362Z,49.76
2019-03-04T10:19:23.791Z,48.50
2019-03-04T10:21:57.787Z,46.95
2019-03-04T10:24:34.742Z,46.60
2019-03-04T10:27:09.204Z,45.91
2019-03-04T10:29:40.651Z,46.14
2019-03-04T10:32:28.897Z,45.50
2019-03-04T10:35:06.087Z,45.26
2019-03-04T10:37:53.937Z,45.42
2019-03-04T10:40:40.457Z,44.82
2019-03-04T10:43:34.517Z,44.29
2019-03-04T10:46:29.885Z,43.83
2019-03-04T10:48:58.305Z,41.73
2019-03-04T10:51:26.688Z,40.67
2019-03-04T10:53:55.078Z,41.27
2019-03-04T10:56:23.458Z,40.62
2019-03-04T10:58:51.848Z,40.16
2019-03-04T11:01:29.916Z,40.66
2019-03-04T11:03:50.368Z,40.13
2019-03-04T11:06:18.846Z,40.94
2019-03-04T11:08:47.249Z,40.89
2019-03-04T11:11:15.664Z,41.05
2019-03-04T11:13:44.046Z,41.08
2019-03-04T11:16:12.436Z,41.58
2019-03-04T11:18:40.878Z,41.83
2019-03-04T11:21:09.348Z,42.12
2019-03-04T11:23:37.941Z,41.84
2019-03-04T11:26:06.405Z,42.22
2019-03-04T11:28:34.807Z,43.00
2019-03-04T11:31:03.669Z,45.03
2019-03-04T11:33:32.056Z,46.20
2019-03-04T11:36:01.418Z,47.26
2019-03-04T11:38:38.612Z,47.81
2019-03-04T11:41:08.909Z,47.89
2019-03-04T11:43:37.291Z,47.18
2019-03-04T11:46:05.732Z,45.95
2019-03-04T11:48:34.138Z,46.19
2019-03-04T11:51:02.630Z,45.43
2019-03-04T11:53:31.002Z,45.75
2019-03-04T11:55:59.503Z,45.12
2019-03-04T11:58:27.904Z,44.81
2019-03-04T12:01:00.531Z,45.20
2019-03-04T12:03:28.915Z,44.95
2019-03-04T12:05:57.310Z,44.14
2019-03-04T12:08:25.705Z,43.65
2019-03-04T12:10:54.121Z,42.96
2019-03-04T12:13:22.533Z,43.37
2019-03-04T12:15:50.924Z,42.92
2019-03-04T12:18:19.308Z,42.73
2019-03-04T12:20:47.703Z,42.03
2019-03-04T12:23:16.251Z,41.82
2019-03-04T12:25:44.630Z,41.12
2019-03-04T12:28:13.087Z,41.73
2019-03-04T12:30:41.468Z,41.72
2019-03-04T12:33:11.200Z,41.75
2019-03-04T12:35:39.614Z,40.55
2019-03-04T12:38:08.007Z,41.03
2019-03-04T12:40:36.534Z,40.04
2019-03-04T12:43:04.993Z,39.85
2019-03-04T12:45:34.662Z,40.29
2019-03-04T12:48:03.264Z,40.08
2019-03-04T12:50:36.743Z,39.54
2019-03-04T12:53:05.678Z,39.90
2019-03-04T12:55:34.082Z,39.65
2019-03-04T12:58:02.593Z,40.06
2019-03-04T13:00:34.044Z,40.00
2019-03-04T13:03:02.491Z,39.75
2019-03-04T13:05:31.007Z,39.57
2019-03-04T13:07:59.417Z,40.11
2019-03-04T13:10:27.834Z,40.18
2019-03-04T13:12:56.239Z,39.40
2019-03-04T13:15:26.898Z,39.32
2019-03-04T13:17:55.398Z,39.06
2019-03-04T13:20:33.333Z,39.37
2019-03-04T13:23:01.734Z,37.80
2019-03-04T13:25:30.107Z,38.56
2019-03-04T13:28:07.840Z,38.56
2019-03-04T13:30:33.796Z,38.85
2019-03-04T13:33:02.202Z,38.97
2019-03-04T13:35:41.402Z,38.94
2019-03-04T13:38:09.897Z,38.90
2019-03-04T13:40:38.332Z,39.24
2019-03-04T13:43:06.909Z,39.05
2019-03-04T13:45:35.363Z,38.99
2019-03-04T13:48:03.834Z,39.19
2019-03-04T13:50:33.760Z,40.07
2019-03-04T13:53:02.186Z,39.77
2019-03-04T13:55:30.638Z,40.24
2019-03-04T13:57:59.130Z,40.51
2019-03-04T14:00:32.959Z,40.75
2019-03-04T14:03:01.372Z,41.41
2019-03-04T14:05:29.829Z,40.86
2019-03-04T14:07:58.225Z,41.21
2019-03-04T14:10:35.511Z,41.84
2019-03-04T14:13:04.055Z,41.77
2019-03-04T14:15:35.321Z,41.95
2019-03-04T14:18:03.785Z,42.69
2019-03-04T14:20:32.196Z,42.78
2019-03-04T14:23:00.586Z,42.97
2019-03-04T14:25:28.994Z,43.24
2019-03-04T14:27:57.388Z,43.78
2019-03-04T14:30:25.847Z,44.06
2019-03-04T14:32:54.239Z,44.36
2019-03-04T14:35:22.623Z,44.34
2019-03-04T14:37:52.679Z,44.71
2019-03-04T14:40:23.124Z,44.96
2019-03-04T14:42:51.523Z,44.95
2019-03-04T14:45:21.772Z,45.16
2019-03-04T14:47:50.175Z,45.33
2019-03-04T14:50:19.694Z,45.65
2019-03-04T14:52:48.076Z,45.82
2019-03-04T14:55:24.321Z,45.55
2019-03-04T14:57:52.707Z,46.13
2019-03-04T15:00:28.803Z,45.82
2019-03-04T15:02:57.257Z,45.43
2019-03-04T15:05:25.639Z,45.62
2019-03-04T15:07:55.762Z,45.54
2019-03-04T15:10:24.271Z,45.39
2019-03-04T15:12:52.695Z,45.62
2019-03-04T15:15:29.194Z,45.69
2019-03-04T15:17:57.601Z,45.44
2019-03-04T15:20:27.926Z,45.21
2019-03-04T15:22:56.444Z,45.33
2019-03-04T15:25:31.114Z,45.45
2019-03-04T15:28:16.689Z,45.39
2019-03-04T15:30:47.285Z,45.49
2019-03-04T15:33:18.379Z,45.33
2019-03-04T15:35:45.777Z,45.32
2019-03-04T15:38:14.254Z,45.27
2019-03-04T15:40:42.693Z,45.32
2019-03-04T15:43:11.156Z,45.69
2019-03-04T15:45:41.556Z,45.59
2019-03-04T15:48:09.941Z,45.50
2019-03-04T15:50:38.333Z,45.92
2019-03-04T15:53:07.537Z,45.93
2019-03-04T15:55:36.017Z,46.16
2019-03-04T15:58:04.731Z,45.78
2019-03-04T16:00:33.535Z,46.17
2019-03-04T16:03:01.992Z,46.08
2019-03-04T16:05:30.371Z,46.18
2019-03-04T16:08:07.210Z,46.11
2019-03-04T16:10:34.999Z,45.91
2019-03-04T16:13:03.442Z,46.34
2019-03-04T16:15:31.907Z,46.12
2019-03-04T16:18:00.293Z,46.48
2019-03-04T16:20:28.745Z,46.39
2019-03-04T16:22:57.196Z,46.27
2019-03-04T16:25:25.582Z,46.24
2019-03-04T16:27:59.813Z,46.24
2019-03-04T16:30:28.211Z,46.35
2019-03-04T16:32:56.587Z,46.49
2019-03-04T16:35:24.968Z,46.45
2019-03-04T16:37:54.424Z,46.80
2019-03-04T16:40:25.028Z,46.96
2019-03-04T16:42:53.655Z,47.00
2019-03-04T16:45:23.489Z,46.93
2019-03-04T16:47:51.918Z,47.22
2019-03-04T16:50:22.889Z,47.28
2019-03-04T16:52:54.378Z,47.49
2019-03-04T16:55:22.759Z,47.95
2019-03-04T16:57:51.205Z,48.01
2019-03-04T17:00:21.138Z,48.23
2019-03-04T17:02:50.254Z,48.24
2019-03-04T17:05:19.763Z,48.47
2019-03-04T17:07:50.831Z,48.62
2019-03-04T17:10:21.058Z,48.73
2019-03-04T17:12:49.451Z,48.81
2019-03-04T17:15:19.730Z,48.81
2019-03-04T17:17:48.272Z,48.93
2019-03-04T17:20:20.382Z,49.07
2019-03-04T17:22:48.834Z,49.30
2019-03-04T17:25:19.828Z,49.01
2019-03-04T17:27:48.669Z,49.14
2019-03-04T17:30:19.371Z,49.47
2019-03-04T17:32:48.013Z,49.46
2019-03-04T17:35:21.782Z,49.37
2019-03-04T17:37:50.501Z,49.25
2019-03-04T17:40:21.406Z,49.18
2019-03-04T17:42:49.808Z,49.06
2019-03-04T17:45:19.821Z,49.19
2019-03-04T17:47:48.277Z,49.31
2019-03-04T17:50:31.722Z,49.45
2019-03-04T17:53:00.579Z,49.47
2019-03-04T17:55:29.154Z,49.79
2019-03-04T17:57:57.606Z,49.88
2019-03-04T18:00:26.049Z,49.47
2019-03-04T18:02:54.430Z,49.47
2019-03-04T18:05:22.836Z,49.57
2019-03-04T18:07:51.218Z,49.78
2019-03-04T18:10:19.670Z,49.64
2019-03-04T18:12:48.114Z,49.95
2019-03-04T18:15:19.301Z,49.61
2019-03-04T18:17:47.705Z,50.00
2019-03-04T18:20:16.248Z,50.63
2019-03-04T18:22:45.626Z,50.61
2019-03-04T18:25:17.057Z,50.80
2019-03-04T18:27:48.337Z,51.12
2019-03-04T18:30:19.765Z,51.41
2019-03-04T18:32:47.385Z,51.71
2019-03-04T18:35:27.416Z,52.16
2019-03-04T18:38:07.424Z,52.90
2019-03-04T18:40:38.871Z,53.65
2019-03-04T18:43:28.229Z,55.42
2019-03-04T18:46:25.194Z,56.37
2019-03-04T18:48:58.583Z,56.81
2019-03-04T18:51:27.692Z,56.50
2019-03-04T18:54:01.570Z,56.81
2019-03-04T18:56:30.212Z,56.82
2019-03-04T18:58:59.016Z,56.71
2019-03-04T19:01:27.466Z,56.40
2019-03-04T19:03:55.894Z,56.73
2019-03-04T19:06:24.347Z,56.93
2019-03-04T19:08:52.780Z,57.14
2019-03-04T19:11:21.272Z,57.36
2019-03-04T19:13:49.660Z,57.44
2019-03-04T19:16:18.071Z,57.63
2019-03-04T19:18:46.467Z,57.89
2019-03-04T19:21:14.859Z,57.67
2019-03-04T19:23:43.244Z,57.49
2019-03-04T19:26:11.696Z,57.21
2019-03-04T19:28:40.095Z,57.11
2019-03-04T19:31:08.562Z,56.63
2019-03-04T19:33:36.933Z,56.96
2019-03-04T19:36:05.377Z,57.29
2019-03-04T19:38:33.831Z,57.27
2019-03-04T19:41:02.278Z,57.21
2019-03-04T19:43:33.136Z,56.31
2019-03-04T19:46:00.968Z,55.86
2019-03-04T19:48:29.567Z,55.50
2019-03-04T19:50:58.055Z,55.24
2019-03-04T19:53:26.436Z,54.88
2019-03-04T19:55:54.818Z,54.75
2019-03-04T19:58:23.267Z,54.20
2019-03-04T20:00:51.655Z,53.54
2019-03-04T20:03:20.377Z,53.72
2019-03-04T20:05:48.760Z,53.65
2019-03-04T20:08:17.212Z,53.37
2019-03-04T20:10:45.680Z,53.57
2019-03-04T20:13:14.092Z,53.57
2019-03-04T20:15:42.582Z,53.29
2019-03-04T20:18:11.047Z,53.46
2019-03-04T20:20:39.705Z,53.71
2019-03-04T20:23:08.100Z,53.83
2019-03-04T20:25:37.071Z,53.83
2019-03-04T20:28:05.600Z,54.01
2019-03-04T20:30:34.167Z,54.03
2019-03-04T20:33:02.565Z,54.10
2019-03-04T20:35:31.026Z,54.32
2019-03-04T20:38:17.200Z,54.30
2019-03-04T20:40:45.587Z,54.49
2019-03-04T20:43:13.962Z,54.76
2019-03-04T20:45:42.458Z,54.99
2019-03-04T20:48:10.847Z,55.09
2019-03-04T20:50:39.259Z,55.40
2019-03-04T20:53:07.653Z,55.51
2019-03-04T20:55:36.128Z,55.74
2019-03-04T20:58:05.540Z,55.99
2019-03-04T21:00:36.325Z,56.16
2019-03-04T21:03:06.713Z,56.37
2019-03-04T21:05:36.592Z,56.74
2019-03-04T21:08:07.245Z,56.93
2019-03-04T21:10:36.018Z,57.16
2019-03-04T21:13:18.596Z,57.29
2019-03-04T21:15:47.074Z,57.50
2019-03-04T21:18:15.541Z,57.75
2019-03-04T21:20:44.268Z,58.05
2019-03-04T21:23:12.822Z,58.44
2019-03-04T21:26:02.596Z,58.51
2019-03-04T21:28:43.129Z,58.70
2019-03-04T21:31:26.560Z,58.97
2019-03-04T21:34:11.104Z,59.12
2019-03-04T21:37:13.005Z,59.35
2019-03-04T21:39:48.485Z,59.40
2019-03-04T21:42:37.977Z,59.64
2019-03-04T21:45:21.767Z,59.52
2019-03-04T21:48:02.063Z,59.77
2019-03-04T21:50:38.833Z,59.82
2019-03-04T21:53:19.329Z,59.87
2019-03-04T21:56:22.471Z,60.16
2019-03-04T21:58:50.970Z,60.22
2019-03-04T22:01:25.211Z,60.13
2019-03-04T22:03:53.578Z,60.25
2019-03-04T22:06:22.065Z,60.25
2019-03-04T22:08:50.524Z,60.16
2019-03-04T22:11:18.928Z,60.13
2019-03-04T22:13:47.384Z,60.06
2019-03-04T22:16:15.911Z,60.09
2019-03-04T22:18:44.476Z,59.80
2019-03-04T22:21:16.657Z,59.74
2019-03-04T22:23:43.173Z,59.45
2019-03-04T22:26:11.556Z,59.38
2019-03-04T22:28:39.976Z,59.55
2019-03-04T22:31:08.352Z,59.63
2019-03-04T22:33:36.746Z,59.49
2019-03-04T22:36:05.162Z,59.49
2019-03-04T22:38:33.551Z,59.65
2019-03-04T22:41:02.072Z,59.57
2019-03-04T22:43:30.528Z,59.75
2019-03-04T22:45:59.253Z,59.83
2019-03-04T22:48:27.686Z,60.12
2019-03-04T22:50:56.156Z,60.20
2019-03-04T22:53:24.602Z,60.26
2019-03-04T22:55:53.008Z,60.48
2019-03-04T22:58:28.693Z,60.59
2019-03-04T23:00:56.340Z,60.49
2019-03-04T23:03:30.569Z,60.60
2019-03-04T23:06:08.281Z,60.42
2019-03-04T23:08:36.974Z,60.44
2019-03-04T23:11:05.495Z,60.45
2019-03-04T23:13:55.548Z,60.54
2019-03-04T23:16:26.855Z,60.80
2019-03-04T23:18:55.486Z,60.90
2019-03-04T23:21:24.017Z,60.99
2019-03-04T23:23:52.425Z,61.33
2019-03-04T23:26:20.824Z,62.79
2019-03-04T23:28:49.237Z,63.61
2019-03-04T23:31:17.642Z,64.18
2019-03-04T23:33:46.118Z,65.02
2019-03-04T23:36:14.548Z,65.92
2019-03-04T23:38:42.924Z,66.46
2019-03-04T23:41:11.410Z,66.80
2019-03-04T23:43:39.834Z,67.83
2019-03-04T23:46:08.215Z,68.10
2019-03-04T23:48:36.594Z,68.60
2019-03-04T23:51:05.037Z,69.01
2019-03-04T23:53:33.423Z,69.07
2019-03-04T23:56:01.804Z,69.21
2019-03-04T23:58:30.178Z,69.00
